sensor_id;sensor_type;location;lat;lon;timestamp;temperature;humidity
46366;DHT22;32073;49.166;8.076;2023-05-10T00:00:07;18.40;62.20
46366;DHT22;32073;49.166;8.076;2023-05-10T00:04:09;18.40;62.10
46366;DHT22;32073;49.166;8.076;2023-05-10T00:08:10;18.30;62.30
46366;DHT22;32073;49.166;8.076;2023-05-10T00:12:10;18.30;62.60
46366;DHT22;32073;49.166;8.076;2023-05-10T00:16:11;18.30;62.40
46366;DHT22;32073;49.166;8.076;2023-05-10T00:20:13;18.20;62.40
46366;DHT22;32073;49.166;8.076;2023-05-10T00:24:14;18.20;62.40
46366;DHT22;32073;49.166;8.076;2023-05-10T00:28:14;18.10;62.60
46366;DHT22;32073;49.166;8.076;2023-05-10T00:32:15;18.10;62.70
46366;DHT22;32073;49.166;8.076;2023-05-10T00:36:16;18.10;62.70
46366;DHT22;32073;49.166;8.076;2023-05-10T00:40:17;18.10;62.70
46366;DHT22;32073;49.166;8.076;2023-05-10T00:44:17;18.10;62.70
46366;DHT22;32073;49.166;8.076;2023-05-10T00:48:19;18.10;62.80
46366;DHT22;32073;49.166;8.076;2023-05-10T00:52:19;18.10;62.70
46366;DHT22;32073;49.166;8.076;2023-05-10T00:56:20;18.10;62.60
46366;DHT22;32073;49.166;8.076;2023-05-10T01:00:23;18.10;62.80
46366;DHT22;32073;49.166;8.076;2023-05-10T01:04:23;18.00;63.00
46366;DHT22;32073;49.166;8.076;2023-05-10T01:08:28;18.10;63.10
46366;DHT22;32073;49.166;8.076;2023-05-10T01:12:28;18.10;63.30
46366;DHT22;32073;49.166;8.076;2023-05-10T01:16:38;18.10;63.20
46366;DHT22;32073;49.166;8.076;2023-05-10T01:20:43;18.10;63.30
46366;DHT22;32073;49.166;8.076;2023-05-10T01:25:03;18.10;63.30
46366;DHT22;32073;49.166;8.076;2023-05-10T01:33:35;18.20;63.50
46366;DHT22;32073;49.166;8.076;2023-05-10T01:37:49;18.20;63.60
46366;DHT22;32073;49.166;8.076;2023-05-10T01:41:57;18.20;63.80
46366;DHT22;32073;49.166;8.076;2023-05-10T01:46:19;18.20;63.80
46366;DHT22;32073;49.166;8.076;2023-05-10T01:50:27;18.30;63.90
46366;DHT22;32073;49.166;8.076;2023-05-10T01:54:30;18.30;63.80
46366;DHT22;32073;49.166;8.076;2023-05-10T01:58:34;18.30;64.50
46366;DHT22;32073;49.166;8.076;2023-05-10T02:02:41;18.30;63.90
46366;DHT22;32073;49.166;8.076;2023-05-10T02:06:46;18.30;64.00
46366;DHT22;32073;49.166;8.076;2023-05-10T02:10:51;18.30;63.90
46366;DHT22;32073;49.166;8.076;2023-05-10T02:14:53;18.30;64.00
46366;DHT22;32073;49.166;8.076;2023-05-10T02:18:56;18.30;63.90
46366;DHT22;32073;49.166;8.076;2023-05-10T02:22:58;18.30;64.00
46366;DHT22;32073;49.166;8.076;2023-05-10T02:27:00;18.30;64.00
46366;DHT22;32073;49.166;8.076;2023-05-10T02:31:03;18.30;63.80
46366;DHT22;32073;49.166;8.076;2023-05-10T02:35:06;18.30;63.80
46366;DHT22;32073;49.166;8.076;2023-05-10T02:39:08;18.30;63.60
46366;DHT22;32073;49.166;8.076;2023-05-10T02:43:14;18.30;63.70
46366;DHT22;32073;49.166;8.076;2023-05-10T02:47:18;18.20;64.40
46366;DHT22;32073;49.166;8.076;2023-05-10T02:51:20;18.20;63.80
46366;DHT22;32073;49.166;8.076;2023-05-10T02:55:27;18.20;64.00
46366;DHT22;32073;49.166;8.076;2023-05-10T02:59:32;18.20;64.00
46366;DHT22;32073;49.166;8.076;2023-05-10T03:03:33;18.10;64.00
46366;DHT22;32073;49.166;8.076;2023-05-10T03:07:34;18.10;64.10
46366;DHT22;32073;49.166;8.076;2023-05-10T03:16:42;18.10;63.90
46366;DHT22;32073;49.166;8.076;2023-05-10T03:21:02;18.10;63.70
46366;DHT22;32073;49.166;8.076;2023-05-10T03:25:06;18.10;63.60
46366;DHT22;32073;49.166;8.076;2023-05-10T03:29:08;18.00;63.50
46366;DHT22;32073;49.166;8.076;2023-05-10T03:33:10;17.90;63.50
46366;DHT22;32073;49.166;8.076;2023-05-10T03:37:12;17.80;63.30
46366;DHT22;32073;49.166;8.076;2023-05-10T03:41:13;17.80;63.50
46366;DHT22;32073;49.166;8.076;2023-05-10T03:45:14;17.70;63.50
46366;DHT22;32073;49.166;8.076;2023-05-10T03:49:15;17.60;63.70
46366;DHT22;32073;49.166;8.076;2023-05-10T03:53:16;17.60;63.90
46366;DHT22;32073;49.166;8.076;2023-05-10T03:57:16;17.50;64.10
46366;DHT22;32073;49.166;8.076;2023-05-10T04:01:17;17.60;64.40
46366;DHT22;32073;49.166;8.076;2023-05-10T04:05:17;17.60;64.60
46366;DHT22;32073;49.166;8.076;2023-05-10T04:09:18;17.70;64.70
46366;DHT22;32073;49.166;8.076;2023-05-10T04:13:19;17.70;64.60
46366;DHT22;32073;49.166;8.076;2023-05-10T04:17:19;17.70;64.60
46366;DHT22;32073;49.166;8.076;2023-05-10T04:21:20;17.70;64.60
46366;DHT22;32073;49.166;8.076;2023-05-10T04:25:21;17.70;64.60
46366;DHT22;32073;49.166;8.076;2023-05-10T04:29:22;17.70;64.70
46366;DHT22;32073;49.166;8.076;2023-05-10T04:33:23;17.80;64.80
46366;DHT22;32073;49.166;8.076;2023-05-10T04:37:23;17.90;64.80
46366;DHT22;32073;49.166;8.076;2023-05-10T04:41:24;17.80;64.80
46366;DHT22;32073;49.166;8.076;2023-05-10T04:45:25;18.00;64.90
46366;DHT22;32073;49.166;8.076;2023-05-10T04:49:26;17.90;64.80
46366;DHT22;32073;49.166;8.076;2023-05-10T04:53:26;17.90;64.70
46366;DHT22;32073;49.166;8.076;2023-05-10T04:57:27;18.00;64.60
46366;DHT22;32073;49.166;8.076;2023-05-10T05:01:28;18.00;64.50
46366;DHT22;32073;49.166;8.076;2023-05-10T05:05:28;17.90;64.40
46366;DHT22;32073;49.166;8.076;2023-05-10T05:09:29;18.00;64.50
46366;DHT22;32073;49.166;8.076;2023-05-10T05:13:29;17.90;64.50
46366;DHT22;32073;49.166;8.076;2023-05-10T05:17:30;17.90;64.50
46366;DHT22;32073;49.166;8.076;2023-05-10T05:21:31;17.90;64.70
46366;DHT22;32073;49.166;8.076;2023-05-10T05:25:32;17.90;64.70
46366;DHT22;32073;49.166;8.076;2023-05-10T05:29:33;18.00;64.90
46366;DHT22;32073;49.166;8.076;2023-05-10T05:33:34;18.00;64.90
46366;DHT22;32073;49.166;8.076;2023-05-10T05:37:34;18.00;64.60
46366;DHT22;32073;49.166;8.076;2023-05-10T05:41:35;18.00;64.70
46366;DHT22;32073;49.166;8.076;2023-05-10T05:45:36;18.00;64.80
46366;DHT22;32073;49.166;8.076;2023-05-10T05:49:37;18.00;64.60
46366;DHT22;32073;49.166;8.076;2023-05-10T05:53:37;18.00;64.60
46366;DHT22;32073;49.166;8.076;2023-05-10T05:57:38;18.10;64.50
46366;DHT22;32073;49.166;8.076;2023-05-10T06:01:38;18.00;64.50
46366;DHT22;32073;49.166;8.076;2023-05-10T06:05:39;18.00;64.40
46366;DHT22;32073;49.166;8.076;2023-05-10T06:09:40;18.00;64.40
46366;DHT22;32073;49.166;8.076;2023-05-10T06:13:40;18.10;64.20
46366;DHT22;32073;49.166;8.076;2023-05-10T06:17:42;18.10;64.30
46366;DHT22;32073;49.166;8.076;2023-05-10T06:21:44;18.20;64.50
46366;DHT22;32073;49.166;8.076;2023-05-10T06:25:45;18.20;64.70
46366;DHT22;32073;49.166;8.076;2023-05-10T06:29:45;18.20;64.90
46366;DHT22;32073;49.166;8.076;2023-05-10T06:33:46;18.40;64.70
46366;DHT22;32073;49.166;8.076;2023-05-10T06:37:47;18.40;64.70
46366;DHT22;32073;49.166;8.076;2023-05-10T06:41:47;18.60;64.70
46366;DHT22;32073;49.166;8.076;2023-05-10T06:45:48;18.60;64.70
46366;DHT22;32073;49.166;8.076;2023-05-10T06:49:49;18.80;64.60
46366;DHT22;32073;49.166;8.076;2023-05-10T06:53:49;18.90;64.20
46366;DHT22;32073;49.166;8.076;2023-05-10T06:57:50;19.00;64.00
46366;DHT22;32073;49.166;8.076;2023-05-10T07:01:51;19.10;64.00
46366;DHT22;32073;49.166;8.076;2023-05-10T07:05:51;19.20;63.70
46366;DHT22;32073;49.166;8.076;2023-05-10T07:09:52;19.30;63.50
46366;DHT22;32073;49.166;8.076;2023-05-10T07:13:52;19.30;63.40
46366;DHT22;32073;49.166;8.076;2023-05-10T07:17:53;19.40;63.00
46366;DHT22;32073;49.166;8.076;2023-05-10T07:21:54;19.50;62.80
46366;DHT22;32073;49.166;8.076;2023-05-10T07:25:54;19.50;62.50
46366;DHT22;32073;49.166;8.076;2023-05-10T07:29:55;19.70;62.60
46366;DHT22;32073;49.166;8.076;2023-05-10T07:33:56;19.70;62.30
46366;DHT22;32073;49.166;8.076;2023-05-10T07:37:57;19.80;62.20
46366;DHT22;32073;49.166;8.076;2023-05-10T07:41:58;19.90;61.50
46366;DHT22;32073;49.166;8.076;2023-05-10T07:45:58;19.90;61.70
46366;DHT22;32073;49.166;8.076;2023-05-10T07:50:00;20.00;61.80
46366;DHT22;32073;49.166;8.076;2023-05-10T07:54:00;20.10;61.90
46366;DHT22;32073;49.166;8.076;2023-05-10T07:58:02;20.20;61.20
46366;DHT22;32073;49.166;8.076;2023-05-10T08:02:03;20.20;61.10
46366;DHT22;32073;49.166;8.076;2023-05-10T08:06:04;20.30;60.50
46366;DHT22;32073;49.166;8.076;2023-05-10T08:10:05;20.30;60.30
46366;DHT22;32073;49.166;8.076;2023-05-10T08:14:06;20.40;60.10
46366;DHT22;32073;49.166;8.076;2023-05-10T08:18:07;20.40;60.20
46366;DHT22;32073;49.166;8.076;2023-05-10T08:22:08;20.40;59.90
46366;DHT22;32073;49.166;8.076;2023-05-10T08:26:08;20.50;59.50
46366;DHT22;32073;49.166;8.076;2023-05-10T08:30:09;20.50;59.40
46366;DHT22;32073;49.166;8.076;2023-05-10T08:34:10;20.50;59.00
46366;DHT22;32073;49.166;8.076;2023-05-10T08:38:11;20.50;58.80
46366;DHT22;32073;49.166;8.076;2023-05-10T08:42:16;20.50;58.80
46366;DHT22;32073;49.166;8.076;2023-05-10T08:46:22;20.40;58.50
46366;DHT22;32073;49.166;8.076;2023-05-10T08:50:23;20.40;59.20
46366;DHT22;32073;49.166;8.076;2023-05-10T08:54:25;20.50;59.10
46366;DHT22;32073;49.166;8.076;2023-05-10T08:58:26;20.50;58.90
46366;DHT22;32073;49.166;8.076;2023-05-10T09:02:27;20.60;58.50
46366;DHT22;32073;49.166;8.076;2023-05-10T09:06:28;20.70;58.50
46366;DHT22;32073;49.166;8.076;2023-05-10T09:10:29;20.70;58.00
46366;DHT22;32073;49.166;8.076;2023-05-10T09:14:34;20.70;57.80
46366;DHT22;32073;49.166;8.076;2023-05-10T09:18:35;20.80;57.70
46366;DHT22;32073;49.166;8.076;2023-05-10T09:22:36;20.80;57.40
46366;DHT22;32073;49.166;8.076;2023-05-10T09:26:48;20.80;57.60
46366;DHT22;32073;49.166;8.076;2023-05-10T09:30:53;20.90;57.10
46366;DHT22;32073;49.166;8.076;2023-05-10T09:34:53;20.90;57.40
46366;DHT22;32073;49.166;8.076;2023-05-10T09:38:54;21.00;57.30
46366;DHT22;32073;49.166;8.076;2023-05-10T09:46:56;21.10;56.90
46366;DHT22;32073;49.166;8.076;2023-05-10T09:50:57;21.20;56.40
46366;DHT22;32073;49.166;8.076;2023-05-10T09:54:58;21.20;55.90
46366;DHT22;32073;49.166;8.076;2023-05-10T09:59:03;21.20;55.60
46366;DHT22;32073;49.166;8.076;2023-05-10T10:03:04;21.20;54.40
46366;DHT22;32073;49.166;8.076;2023-05-10T10:07:05;21.20;54.70
46366;DHT22;32073;49.166;8.076;2023-05-10T10:11:06;21.10;55.00
46366;DHT22;32073;49.166;8.076;2023-05-10T10:15:08;21.20;55.00
46366;DHT22;32073;49.166;8.076;2023-05-10T10:19:10;21.20;54.80
46366;DHT22;32073;49.166;8.076;2023-05-10T10:23:10;21.30;54.70
46366;DHT22;32073;49.166;8.076;2023-05-10T10:27:19;21.30;54.60
46366;DHT22;32073;49.166;8.076;2023-05-10T10:31:41;21.30;54.40
46366;DHT22;32073;49.166;8.076;2023-05-10T10:35:46;21.40;55.50
46366;DHT22;32073;49.166;8.076;2023-05-10T10:39:50;21.40;54.60
46366;DHT22;32073;49.166;8.076;2023-05-10T10:48:31;21.40;54.10
46366;DHT22;32073;49.166;8.076;2023-05-10T10:56:40;21.20;53.00
46366;DHT22;32073;49.166;8.076;2023-05-10T11:00:40;21.10;53.50
46366;DHT22;32073;49.166;8.076;2023-05-10T11:04:42;21.00;53.50
46366;DHT22;32073;49.166;8.076;2023-05-10T11:08:46;21.00;53.50
46366;DHT22;32073;49.166;8.076;2023-05-10T11:13:06;21.10;53.50
46366;DHT22;32073;49.166;8.076;2023-05-10T11:17:26;21.20;52.60
46366;DHT22;32073;49.166;8.076;2023-05-10T11:21:30;21.30;52.50
46366;DHT22;32073;49.166;8.076;2023-05-10T11:25:31;21.30;52.50
46366;DHT22;32073;49.166;8.076;2023-05-10T11:29:32;21.40;52.30
46366;DHT22;32073;49.166;8.076;2023-05-10T11:33:46;21.50;52.30
46366;DHT22;32073;49.166;8.076;2023-05-10T11:37:48;21.70;51.60
46366;DHT22;32073;49.166;8.076;2023-05-10T11:41:49;21.90;52.80
46366;DHT22;32073;49.166;8.076;2023-05-10T11:45:50;22.20;52.30
46366;DHT22;32073;49.166;8.076;2023-05-10T11:49:51;22.30;51.50
46366;DHT22;32073;49.166;8.076;2023-05-10T11:53:56;22.50;50.40
46366;DHT22;32073;49.166;8.076;2023-05-10T11:58:01;22.50;49.10
46366;DHT22;32073;49.166;8.076;2023-05-10T12:02:02;22.40;48.90
46366;DHT22;32073;49.166;8.076;2023-05-10T12:06:04;22.50;49.20
46366;DHT22;32073;49.166;8.076;2023-05-10T12:10:12;22.40;49.00
46366;DHT22;32073;49.166;8.076;2023-05-10T12:14:17;22.40;48.60
46366;DHT22;32073;49.166;8.076;2023-05-10T12:18:22;22.40;48.70
46366;DHT22;32073;49.166;8.076;2023-05-10T12:22:25;22.40;47.60
46366;DHT22;32073;49.166;8.076;2023-05-10T12:26:26;22.30;47.90
46366;DHT22;32073;49.166;8.076;2023-05-10T12:30:30;22.20;48.20
46366;DHT22;32073;49.166;8.076;2023-05-10T12:34:32;22.30;47.80
46366;DHT22;32073;49.166;8.076;2023-05-10T12:38:36;22.30;48.10
46366;DHT22;32073;49.166;8.076;2023-05-10T12:42:43;22.40;47.80
46366;DHT22;32073;49.166;8.076;2023-05-10T12:46:45;22.40;49.30
46366;DHT22;32073;49.166;8.076;2023-05-10T12:50:46;22.50;46.80
46366;DHT22;32073;49.166;8.076;2023-05-10T12:54:46;22.50;46.40
46366;DHT22;32073;49.166;8.076;2023-05-10T12:58:47;22.50;46.30
46366;DHT22;32073;49.166;8.076;2023-05-10T13:02:48;22.50;45.90
46366;DHT22;32073;49.166;8.076;2023-05-10T13:06:49;22.60;46.10
46366;DHT22;32073;49.166;8.076;2023-05-10T13:10:50;22.60;46.10
46366;DHT22;32073;49.166;8.076;2023-05-10T13:14:50;22.70;46.00
46366;DHT22;32073;49.166;8.076;2023-05-10T13:18:51;22.80;46.20
46366;DHT22;32073;49.166;8.076;2023-05-10T13:22:51;22.90;45.70
46366;DHT22;32073;49.166;8.076;2023-05-10T13:26:52;23.10;46.10
46366;DHT22;32073;49.166;8.076;2023-05-10T13:30:53;23.20;45.40
46366;DHT22;32073;49.166;8.076;2023-05-10T13:34:53;23.20;45.30
46366;DHT22;32073;49.166;8.076;2023-05-10T13:38:54;23.40;45.30
46366;DHT22;32073;49.166;8.076;2023-05-10T13:42:55;23.40;44.50
46366;DHT22;32073;49.166;8.076;2023-05-10T13:46:56;23.40;44.50
46366;DHT22;32073;49.166;8.076;2023-05-10T13:50:57;23.50;44.60
46366;DHT22;32073;49.166;8.076;2023-05-10T13:54:57;23.50;44.30
46366;DHT22;32073;49.166;8.076;2023-05-10T13:58:58;23.60;44.10
46366;DHT22;32073;49.166;8.076;2023-05-10T14:02:59;23.60;44.00
46366;DHT22;32073;49.166;8.076;2023-05-10T14:07:00;23.50;43.40
46366;DHT22;32073;49.166;8.076;2023-05-10T14:11:00;23.50;43.60
46366;DHT22;32073;49.166;8.076;2023-05-10T14:15:01;23.40;43.30
46366;DHT22;32073;49.166;8.076;2023-05-10T14:19:02;23.50;43.30
46366;DHT22;32073;49.166;8.076;2023-05-10T14:23:03;23.60;43.20
46366;DHT22;32073;49.166;8.076;2023-05-10T14:27:04;23.60;43.00
46366;DHT22;32073;49.166;8.076;2023-05-10T14:31:04;23.50;42.80
46366;DHT22;32073;49.166;8.076;2023-05-10T14:35:06;23.50;42.90
46366;DHT22;32073;49.166;8.076;2023-05-10T14:39:07;23.50;42.70
46366;DHT22;32073;49.166;8.076;2023-05-10T14:43:10;23.50;42.60
46366;DHT22;32073;49.166;8.076;2023-05-10T14:47:10;23.40;42.30
46366;DHT22;32073;49.166;8.076;2023-05-10T14:51:11;23.40;42.30
46366;DHT22;32073;49.166;8.076;2023-05-10T14:55:12;23.30;42.40
46366;DHT22;32073;49.166;8.076;2023-05-10T14:59:12;23.30;42.10
46366;DHT22;32073;49.166;8.076;2023-05-10T15:03:13;23.30;42.30
46366;DHT22;32073;49.166;8.076;2023-05-10T15:07:14;23.20;42.50
46366;DHT22;32073;49.166;8.076;2023-05-10T15:11:16;23.20;42.30
46366;DHT22;32073;49.166;8.076;2023-05-10T15:15:17;23.30;42.10
46366;DHT22;32073;49.166;8.076;2023-05-10T15:19:17;23.20;42.10
46366;DHT22;32073;49.166;8.076;2023-05-10T15:23:18;23.30;42.10
46366;DHT22;32073;49.166;8.076;2023-05-10T15:27:18;23.10;42.10
46366;DHT22;32073;49.166;8.076;2023-05-10T15:31:19;23.10;42.10
46366;DHT22;32073;49.166;8.076;2023-05-10T15:35:20;23.10;42.10
46366;DHT22;32073;49.166;8.076;2023-05-10T15:39:20;23.10;42.20
46366;DHT22;32073;49.166;8.076;2023-05-10T15:43:21;23.10;42.40
46366;DHT22;32073;49.166;8.076;2023-05-10T15:47:22;23.10;42.80
46366;DHT22;32073;49.166;8.076;2023-05-10T15:51:22;23.20;42.20
46366;DHT22;32073;49.166;8.076;2023-05-10T15:55:23;23.10;42.50
46366;DHT22;32073;49.166;8.076;2023-05-10T15:59:23;23.10;43.20
46366;DHT22;32073;49.166;8.076;2023-05-10T16:03:27;23.10;42.80
46366;DHT22;32073;49.166;8.076;2023-05-10T16:07:27;23.10;43.00
46366;DHT22;32073;49.166;8.076;2023-05-10T16:11:28;23.20;43.10
46366;DHT22;32073;49.166;8.076;2023-05-10T16:15:29;23.20;42.80
46366;DHT22;32073;49.166;8.076;2023-05-10T16:19:30;23.30;42.90
46366;DHT22;32073;49.166;8.076;2023-05-10T16:23:30;23.30;43.70
46366;DHT22;32073;49.166;8.076;2023-05-10T16:27:31;23.30;42.70
46366;DHT22;32073;49.166;8.076;2023-05-10T16:31:32;23.40;42.40
46366;DHT22;32073;49.166;8.076;2023-05-10T16:35:33;23.30;42.40
46366;DHT22;32073;49.166;8.076;2023-05-10T16:39:34;23.30;42.30
46366;DHT22;32073;49.166;8.076;2023-05-10T16:43:34;23.30;42.50
46366;DHT22;32073;49.166;8.076;2023-05-10T16:47:37;23.20;42.40
46366;DHT22;32073;49.166;8.076;2023-05-10T16:51:38;23.20;42.40
46366;DHT22;32073;49.166;8.076;2023-05-10T16:55:40;23.20;42.40
46366;DHT22;32073;49.166;8.076;2023-05-10T16:59:41;23.10;42.40
46366;DHT22;32073;49.166;8.076;2023-05-10T17:03:41;23.10;42.50
46366;DHT22;32073;49.166;8.076;2023-05-10T17:07:42;23.10;42.40
46366;DHT22;32073;49.166;8.076;2023-05-10T17:11:43;23.10;42.40
46366;DHT22;32073;49.166;8.076;2023-05-10T17:15:44;23.00;42.60
46366;DHT22;32073;49.166;8.076;2023-05-10T17:19:46;23.00;42.40
46366;DHT22;32073;49.166;8.076;2023-05-10T17:23:47;22.90;42.30
46366;DHT22;32073;49.166;8.076;2023-05-10T17:27:47;22.90;42.40
46366;DHT22;32073;49.166;8.076;2023-05-10T17:31:48;22.80;42.40
46366;DHT22;32073;49.166;8.076;2023-05-10T17:35:49;22.70;42.70
46366;DHT22;32073;49.166;8.076;2023-05-10T17:39:49;22.50;43.10
46366;DHT22;32073;49.166;8.076;2023-05-10T17:43:50;22.30;43.70
46366;DHT22;32073;49.166;8.076;2023-05-10T17:47:51;22.10;44.50
46366;DHT22;32073;49.166;8.076;2023-05-10T17:51:51;21.90;45.60
46366;DHT22;32073;49.166;8.076;2023-05-10T17:55:52;21.70;45.40
46366;DHT22;32073;49.166;8.076;2023-05-10T17:59:54;21.50;45.50
46366;DHT22;32073;49.166;8.076;2023-05-10T18:03:55;21.40;46.20
46366;DHT22;32073;49.166;8.076;2023-05-10T18:07:55;21.30;46.40
46366;DHT22;32073;49.166;8.076;2023-05-10T18:11:56;21.30;46.70
46366;DHT22;32073;49.166;8.076;2023-05-10T18:15:57;21.30;46.60
46366;DHT22;32073;49.166;8.076;2023-05-10T18:19:57;21.20;46.90
46366;DHT22;32073;49.166;8.076;2023-05-10T18:23:58;21.20;46.90
46366;DHT22;32073;49.166;8.076;2023-05-10T18:27:59;21.00;47.50
46366;DHT22;32073;49.166;8.076;2023-05-10T18:31:59;21.00;47.10
46366;DHT22;32073;49.166;8.076;2023-05-10T18:36:00;21.00;47.00
46366;DHT22;32073;49.166;8.076;2023-05-10T18:40:02;20.90;47.10
46366;DHT22;32073;49.166;8.076;2023-05-10T18:44:04;20.90;47.30
46366;DHT22;32073;49.166;8.076;2023-05-10T18:48:04;20.80;47.30
46366;DHT22;32073;49.166;8.076;2023-05-10T18:52:07;20.80;47.20
46366;DHT22;32073;49.166;8.076;2023-05-10T18:56:07;20.60;47.10
46366;DHT22;32073;49.166;8.076;2023-05-10T19:00:09;20.50;47.30
46366;DHT22;32073;49.166;8.076;2023-05-10T19:04:11;20.40;47.30
46366;DHT22;32073;49.166;8.076;2023-05-10T19:08:12;20.30;47.30
46366;DHT22;32073;49.166;8.076;2023-05-10T19:12:12;20.20;47.50
46366;DHT22;32073;49.166;8.076;2023-05-10T19:16:14;20.10;47.60
46366;DHT22;32073;49.166;8.076;2023-05-10T19:20:16;20.10;47.90
46366;DHT22;32073;49.166;8.076;2023-05-10T19:24:16;20.00;48.00
46366;DHT22;32073;49.166;8.076;2023-05-10T19:28:18;19.90;48.10
46366;DHT22;32073;49.166;8.076;2023-05-10T19:32:19;19.90;48.30
46366;DHT22;32073;49.166;8.076;2023-05-10T19:36:21;19.80;48.40
46366;DHT22;32073;49.166;8.076;2023-05-10T19:40:22;19.80;48.60
46366;DHT22;32073;49.166;8.076;2023-05-10T19:44:23;19.80;48.50
46366;DHT22;32073;49.166;8.076;2023-05-10T19:48:24;19.70;48.60
46366;DHT22;32073;49.166;8.076;2023-05-10T19:52:25;19.70;48.80
46366;DHT22;32073;49.166;8.076;2023-05-10T19:56:25;19.70;48.80
46366;DHT22;32073;49.166;8.076;2023-05-10T20:00:28;19.70;48.90
46366;DHT22;32073;49.166;8.076;2023-05-10T20:04:28;19.70;49.10
46366;DHT22;32073;49.166;8.076;2023-05-10T20:08:29;19.70;49.10
46366;DHT22;32073;49.166;8.076;2023-05-10T20:12:30;19.60;49.10
46366;DHT22;32073;49.166;8.076;2023-05-10T20:16:31;19.60;49.20
46366;DHT22;32073;49.166;8.076;2023-05-10T20:20:32;19.60;49.40
46366;DHT22;32073;49.166;8.076;2023-05-10T20:24:34;19.50;49.40
46366;DHT22;32073;49.166;8.076;2023-05-10T20:28:35;19.50;49.50
46366;DHT22;32073;49.166;8.076;2023-05-10T20:32:36;19.40;50.20
46366;DHT22;32073;49.166;8.076;2023-05-10T20:36:37;19.30;49.60
46366;DHT22;32073;49.166;8.076;2023-05-10T20:40:38;19.30;49.70
46366;DHT22;32073;49.166;8.076;2023-05-10T20:44:42;19.20;49.70
46366;DHT22;32073;49.166;8.076;2023-05-10T20:48:42;19.10;49.80
46366;DHT22;32073;49.166;8.076;2023-05-10T20:52:43;19.00;49.80
46366;DHT22;32073;49.166;8.076;2023-05-10T20:56:44;19.00;49.90
46366;DHT22;32073;49.166;8.076;2023-05-10T21:00:44;18.90;49.90
46366;DHT22;32073;49.166;8.076;2023-05-10T21:04:45;18.90;50.10
46366;DHT22;32073;49.166;8.076;2023-05-10T21:08:46;18.70;50.10
46366;DHT22;32073;49.166;8.076;2023-05-10T21:12:46;18.60;50.20
46366;DHT22;32073;49.166;8.076;2023-05-10T21:16:47;18.50;50.20
46366;DHT22;32073;49.166;8.076;2023-05-10T21:20:50;18.50;50.40
46366;DHT22;32073;49.166;8.076;2023-05-10T21:24:50;18.40;50.50
46366;DHT22;32073;49.166;8.076;2023-05-10T21:28:51;18.30;50.50
46366;DHT22;32073;49.166;8.076;2023-05-10T21:32:52;18.30;50.60
46366;DHT22;32073;49.166;8.076;2023-05-10T21:36:54;18.30;50.70
46366;DHT22;32073;49.166;8.076;2023-05-10T21:40:55;18.20;50.80
46366;DHT22;32073;49.166;8.076;2023-05-10T21:44:55;18.20;50.90
46366;DHT22;32073;49.166;8.076;2023-05-10T21:48:56;18.10;50.80
46366;DHT22;32073;49.166;8.076;2023-05-10T21:53:05;18.10;50.90
46366;DHT22;32073;49.166;8.076;2023-05-10T21:57:05;18.10;51.30
46366;DHT22;32073;49.166;8.076;2023-05-10T22:01:06;18.00;50.80
46366;DHT22;32073;49.166;8.076;2023-05-10T22:05:07;17.90;50.80
46366;DHT22;32073;49.166;8.076;2023-05-10T22:09:08;17.90;51.00
46366;DHT22;32073;49.166;8.076;2023-05-10T22:13:09;17.80;51.20
46366;DHT22;32073;49.166;8.076;2023-05-10T22:17:10;17.80;51.30
46366;DHT22;32073;49.166;8.076;2023-05-10T22:21:10;17.70;51.30
46366;DHT22;32073;49.166;8.076;2023-05-10T22:25:11;17.70;51.40
46366;DHT22;32073;49.166;8.076;2023-05-10T22:29:12;17.60;51.40
46366;DHT22;32073;49.166;8.076;2023-05-10T22:33:12;17.60;51.40
46366;DHT22;32073;49.166;8.076;2023-05-10T22:37:13;17.50;51.50
46366;DHT22;32073;49.166;8.076;2023-05-10T22:41:17;17.50;51.60
46366;DHT22;32073;49.166;8.076;2023-05-10T22:45:17;17.40;51.80
46366;DHT22;32073;49.166;8.076;2023-05-10T22:49:18;17.30;51.90
46366;DHT22;32073;49.166;8.076;2023-05-10T22:53:19;17.30;52.00
46366;DHT22;32073;49.166;8.076;2023-05-10T22:57:19;17.20;52.00
46366;DHT22;32073;49.166;8.076;2023-05-10T23:01:20;17.20;52.20
46366;DHT22;32073;49.166;8.076;2023-05-10T23:05:20;17.10;52.30
46366;DHT22;32073;49.166;8.076;2023-05-10T23:09:21;17.10;52.40
46366;DHT22;32073;49.166;8.076;2023-05-10T23:13:22;17.10;52.50
46366;DHT22;32073;49.166;8.076;2023-05-10T23:17:24;17.00;52.50
46366;DHT22;32073;49.166;8.076;2023-05-10T23:21:24;16.90;52.60
46366;DHT22;32073;49.166;8.076;2023-05-10T23:25:25;16.90;52.70
46366;DHT22;32073;49.166;8.076;2023-05-10T23:29:26;16.90;52.80
46366;DHT22;32073;49.166;8.076;2023-05-10T23:33:26;16.80;52.80
46366;DHT22;32073;49.166;8.076;2023-05-10T23:37:27;16.80;53.00
46366;DHT22;32073;49.166;8.076;2023-05-10T23:41:28;16.70;53.10
46366;DHT22;32073;49.166;8.076;2023-05-10T23:45:28;16.70;53.20
46366;DHT22;32073;49.166;8.076;2023-05-10T23:49:29;16.60;53.20
46366;DHT22;32073;49.166;8.076;2023-05-10T23:53:30;16.50;53.30
46366;DHT22;32073;49.166;8.076;2023-05-10T23:57:30;16.40;53.40
